KIPT/IPT METAR and TAF weather

Enter ICAO airport designator
Station Type Date Time Source
KIPT METAR 2019/04/20 21:54 UTC NOAA

KIPT 202154Z 16012G20KT 10SM FEW075 23/06 A2957 RMK AO2 SLP008 T02330061


Station Type Date Time Source
KIPT Decoded METAR 2019/04/20 21:54 UTC NOAA

WILLIAMSPORT-LYCOMING COUNTY, PA, United States (KIPT) 41-15N 076-55W 164M
Apr 20, 2019 - 05:54 PM EDT / 2019.04.20 2154 UTC
Wind: from the SSE (160 degrees) at 14 MPH (12 KT) gusting to 23 MPH (20 KT):0
Visibility: 10 mile(s):0
Sky conditions: mostly clear
Temperature: 73.9 F (23.3 C)
Dew Point: 43.0 F (6.1 C)
Relative Humidity: 32%
Pressure (altimeter): 29.57 in. Hg (1001 hPa)
ob: KIPT 202154Z 16012G20KT 10SM FEW075 23/06 A2957 RMK AO2 SLP008 T02330061
cycle: 22

Station Type Date Time Source
KIPT TAF 2019/04/20 21:57 UTC NOAA

TAF
AMD KIPT 202054Z 2021/2118 15010G25KT P6SM SCT060
FM210000 14009KT P6SM SCT050
FM210700 10004KT 6SM BR SCT040
FM211200 26005KT P6SM VCSH BKN025

Example: see airport list